Bonpas, Illinois
Current Conditions -  °F | °C
As of 4:35 PM on Sunday 21 Dec 2014 (Local Time) from KOLY Reporting Station
Clear Clear  
Wind Chill:   Ceiling: Unl
Heat Index:   Visibility: 10mi
Dew Point: -1°   Wind: 5mph
Humidity: 81%   Direction: 110°ESE
Pressure: 30.1"   Gusts: NA
Location:  38.6228°N, 87.9781°W
Report Text: KOLY 212235Z AUTO 11004KT 10SM CLR 02/M01 A3010 RMK AO2
Loading
Personal Weather Stations






























Interactive Weather Map New forecast layout! Learn more

10-Day Weather Forecast

Advertisements
Track Severe Weather on mobile